Hinckley, MN

4:34 PM CST on February 21, 2017 (GMT -0600)
Hinckley

Weather History for K04W - October, 2013

Change the Weather History Date:

Saturday, October 26, 2013

  Actual Average (KJMR) Record (KJMR)
Temperature  
Mean Temperature 39 °F -  
Max Temperature 46 °F 55 °F 80 °F (1989)
Min Temperature 32 °F 30 °F 11 °F (1942)
Degree Days  
Heating Degree Days 26    
Moisture  
Dew Point 31 °F    
Average Humidity 69    
Maximum Humidity 87    
Minimum Humidity 57    
Precipitation  
Precipitation 0.00 in - - ()
Sea Level Pressure  
Sea Level Pressure 29.96 in    
Wind  
Wind Speed 9 mph (WNW)    
Max Wind Speed 20 mph    
Max Gust Speed 30 mph    
Visibility 10 miles    
Events      
Averages and records for this station are not official NWS values.
T = Trace of Precipitation, MM = Missing Value Source: NWS Daily Summary

Daily Weather History Graph

Daily Weather History Graph

Search for Another Location

Airport or City:

Trip Planner

Search our weather history database for the weather conditions in past years. The results will help you decide how hot, cold, wet, or windy it might be!

Date:

Astronomy

Oct. 26, 2013 Rise Set
Actual Time 7:44 AM CDT 6:06 PM CDT
Civil Twilight 7:13 AM CDT 6:37 PM CDT
Nautical Twilight 6:38 AM CDT 7:12 PM CDT
Astronomical Twilight 6:03 AM CDT 7:46 PM CDT
Moon No Moon Rise 2:03 PM CDT (10/26)
Length of Visible Light 11h 23m
Length of Day
10h 22m
Waning Gibbous, 53% of the Moon is Illuminated
Oct 26
Waning Gibbous
Oct 26
Last Quarter
Nov 3
New
Nov 9
First Quarter
Nov 17
Full

Hourly Weather History & Observations

Time (CDT) Temp. Windchill Dew Point Humidity Pressure Visibility Wind Dir Wind Speed Gust Speed Precip Events Conditions
12:18 AM 46.4 °F 43.5 °F 37.4 °F 71% 29.74 in 10.0 mi WNW 5.8 mph - N/A   Scattered Clouds
12:38 AM 46.4 °F 41.9 °F 35.6 °F 66% 29.75 in 10.0 mi NW 9.2 mph - N/A   Scattered Clouds
12:58 AM 46.4 °F 41.1 °F 33.8 °F 62% 29.76 in 10.0 mi NW 11.5 mph 21.9 mph N/A   Mostly Cloudy
1:18 AM 46.4 °F 41.1 °F 33.8 °F 62% 29.76 in 10.0 mi NW 11.5 mph 18.4 mph N/A   Mostly Cloudy
1:38 AM 46.4 °F 39.8 °F 32.0 °F 57% 29.77 in 10.0 mi NW 16.1 mph 21.9 mph N/A   Clear
1:58 AM 44.6 °F 40.2 °F 32.0 °F 61% 29.77 in 10.0 mi NW 8.1 mph - N/A   Clear
2:18 AM 44.6 °F 37.8 °F 30.2 °F 57% 29.78 in 10.0 mi NW 15.0 mph 23.0 mph N/A   Clear
2:38 AM 44.6 °F 39.2 °F 30.2 °F 57% 29.79 in 10.0 mi NW 10.4 mph - N/A   Mostly Cloudy
2:58 AM 42.8 °F 38.0 °F 32.0 °F 66% 29.79 in 10.0 mi NW 8.1 mph 17.3 mph N/A   Scattered Clouds
3:18 AM 42.8 °F 38.0 °F 32.0 °F 66% 29.80 in 10.0 mi WNW 8.1 mph - N/A   Mostly Cloudy
3:38 AM 41.0 °F 34.7 °F 32.0 °F 70% 29.81 in 10.0 mi NW 10.4 mph 19.6 mph N/A   Overcast
3:58 AM 41.0 °F 34.3 °F 32.0 °F 70% 29.82 in 10.0 mi NW 11.5 mph 17.3 mph N/A   Overcast
4:18 AM 41.0 °F 34.3 °F 32.0 °F 70% 29.83 in 10.0 mi NW 11.5 mph 17.3 mph N/A   Overcast
4:38 AM 41.0 °F 31.9 °F 32.0 °F 70% 29.84 in 10.0 mi NW 19.6 mph 29.9 mph N/A   Overcast
4:58 AM 41.0 °F 33.9 °F 32.0 °F 70% 29.85 in 10.0 mi NW 12.7 mph 18.4 mph N/A   Mostly Cloudy
5:18 AM 41.0 °F 35.2 °F 32.0 °F 70% 29.86 in 10.0 mi NW 9.2 mph 19.6 mph N/A   Overcast
5:38 AM 39.2 °F 31.2 °F 32.0 °F 75% 29.88 in 10.0 mi NW 13.8 mph 24.2 mph N/A   Overcast
5:58 AM 39.2 °F 32.0 °F 32.0 °F 75% 29.89 in 10.0 mi NNW 11.5 mph 17.3 mph N/A   Overcast
6:18 AM 41.0 °F 35.2 °F 32.0 °F 70% 29.90 in 10.0 mi NW 9.2 mph - N/A   Overcast
6:38 AM 41.0 °F 35.2 °F 32.0 °F 70% 29.90 in 10.0 mi WNW 9.2 mph 19.6 mph N/A   Overcast
6:58 AM 39.2 °F 33.0 °F 32.0 °F 75% 29.91 in 10.0 mi NW 9.2 mph 18.4 mph N/A   Mostly Cloudy
7:18 AM 37.4 °F 31.4 °F 32.0 °F 81% 29.92 in 10.0 mi NW 8.1 mph - N/A   Scattered Clouds
7:39 AM 39.2 °F 34.2 °F 32.0 °F 75% 29.93 in 10.0 mi NW 6.9 mph - N/A   Overcast
7:58 AM 39.2 °F 34.2 °F 32.0 °F 75% 29.94 in 10.0 mi WNW 6.9 mph - N/A   Overcast
8:18 AM 39.2 °F 33.0 °F 32.0 °F 75% 29.95 in 10.0 mi WNW 9.2 mph - N/A   Overcast
8:39 AM 39.2 °F 34.2 °F 32.0 °F 75% 29.96 in 10.0 mi WNW 6.9 mph - N/A   Overcast
8:58 AM 39.2 °F 32.5 °F 32.0 °F 75% 29.96 in 10.0 mi NW 10.4 mph 16.1 mph N/A   Overcast
9:18 AM 39.2 °F 33.6 °F 30.2 °F 70% 29.97 in 10.0 mi NW 8.1 mph 17.3 mph N/A   Overcast
9:39 AM 41.0 °F 33.1 °F 30.2 °F 65% 29.98 in 10.0 mi NW 15.0 mph 19.6 mph N/A   Overcast
9:58 AM 41.0 °F 34.3 °F 30.2 °F 65% 29.99 in 10.0 mi NW 11.5 mph 18.4 mph N/A   Overcast
10:18 AM 41.0 °F 33.9 °F 30.2 °F 65% 29.99 in 10.0 mi NW 12.7 mph 19.6 mph N/A   Overcast
10:39 AM 41.0 °F 33.5 °F 30.2 °F 65% 30.00 in 10.0 mi NW 13.8 mph 17.3 mph N/A   Overcast
10:58 AM 41.0 °F 34.3 °F 30.2 °F 65% 30.01 in 10.0 mi NW 11.5 mph 18.4 mph N/A   Overcast
11:18 AM 41.0 °F 33.5 °F 30.2 °F 65% 30.02 in 10.0 mi NW 13.8 mph 19.6 mph N/A   Overcast
11:39 AM 41.0 °F 34.7 °F 30.2 °F 65% 30.04 in 10.0 mi WNW 10.4 mph 21.9 mph N/A   Overcast
11:58 AM 42.8 °F 38.0 °F 30.2 °F 61% 30.04 in 10.0 mi NW 8.1 mph - N/A   Overcast
12:19 PM 42.8 °F 36.6 °F 30.2 °F 61% 30.04 in 10.0 mi NW 11.5 mph - N/A   Overcast
12:38 PM 42.8 °F 35.4 °F 32.0 °F 66% 30.04 in 10.0 mi NW 15.0 mph 19.6 mph N/A   Overcast
12:58 PM 42.8 °F 37.5 °F 30.2 °F 61% 30.04 in 10.0 mi NW 9.2 mph - N/A   Overcast
1:19 PM 42.8 °F 35.8 °F 30.2 °F 61% 30.05 in 10.0 mi NW 13.8 mph - N/A   Overcast
1:38 PM 44.6 °F 39.2 °F 30.2 °F 57% 30.05 in 10.0 mi WNW 10.4 mph 17.3 mph N/A   Overcast
1:59 PM 42.8 °F 37.0 °F 30.2 °F 61% 30.04 in 10.0 mi NW 10.4 mph - N/A   Mostly Cloudy
2:18 PM 44.6 °F 40.2 °F 32.0 °F 61% 30.04 in 10.0 mi WNW 8.1 mph - N/A   Mostly Cloudy
2:38 PM 44.6 °F 38.1 °F 30.2 °F 57% 30.05 in 10.0 mi West 13.8 mph 19.6 mph N/A   Overcast
2:59 PM 44.6 °F 40.2 °F 30.2 °F 57% 30.05 in 10.0 mi NW 8.1 mph - N/A   Mostly Cloudy
3:18 PM 42.8 °F 38.6 °F 30.2 °F 61% 30.05 in 10.0 mi WNW 6.9 mph - N/A   Overcast
3:38 PM 42.8 °F 38.0 °F 30.2 °F 61% 30.05 in 10.0 mi WNW 8.1 mph 18.4 mph N/A   Overcast
3:59 PM 44.6 °F 40.2 °F 30.2 °F 57% 30.05 in 10.0 mi WNW 8.1 mph 17.3 mph N/A   Overcast
4:18 PM 42.8 °F 37.0 °F 30.2 °F 61% 30.06 in 10.0 mi WNW 10.4 mph - N/A   Overcast
4:38 PM 42.8 °F 37.5 °F 30.2 °F 61% 30.06 in 10.0 mi WNW 9.2 mph - N/A   Overcast
4:59 PM 42.8 °F 38.6 °F 30.2 °F 61% 30.06 in 10.0 mi WNW 6.9 mph - N/A   Overcast
5:18 PM 42.8 °F 38.0 °F 30.2 °F 61% 30.05 in 10.0 mi West 8.1 mph - N/A   Overcast
5:38 PM 42.8 °F 38.6 °F 30.2 °F 61% 30.05 in 10.0 mi WNW 6.9 mph - N/A   Overcast
5:59 PM 41.0 °F 35.8 °F 30.2 °F 65% 30.05 in 10.0 mi West 8.1 mph 16.1 mph N/A   Overcast
6:18 PM 41.0 °F 37.1 °F 28.4 °F 61% 30.06 in 10.0 mi West 5.8 mph - N/A   Overcast
6:39 PM 41.0 °F 35.8 °F 30.2 °F 65% 30.06 in 10.0 mi West 8.1 mph - N/A   Overcast
6:58 PM 41.0 °F 35.8 °F 30.2 °F 65% 30.06 in 10.0 mi West 8.1 mph - N/A   Overcast
7:18 PM 39.2 °F 35.0 °F 30.2 °F 70% 30.06 in 10.0 mi West 5.8 mph - N/A   Overcast
7:39 PM 39.2 °F 35.0 °F 30.2 °F 70% 30.06 in 10.0 mi West 5.8 mph - N/A   Overcast
7:58 PM 39.2 °F 35.9 °F 30.2 °F 70% 30.06 in 10.0 mi West 4.6 mph - N/A   Overcast
8:18 PM 39.2 °F 35.9 °F 30.2 °F 70% 30.05 in 10.0 mi West 4.6 mph - N/A   Scattered Clouds
8:39 PM 35.6 °F 30.7 °F 30.2 °F 81% 30.03 in 10.0 mi West 5.8 mph - N/A   Scattered Clouds
8:58 PM 35.6 °F 30.7 °F 28.4 °F 75% 30.04 in 10.0 mi West 5.8 mph - N/A   Clear
9:18 PM 33.8 °F 28.6 °F 28.4 °F 81% 30.05 in 10.0 mi West 5.8 mph - N/A   Clear
9:39 PM 32.0 °F 28.7 °F 28.4 °F 87% 30.04 in 10.0 mi WSW 3.5 mph - N/A   Clear
9:58 PM 32.0 °F 28.7 °F 28.4 °F 87% 30.03 in 10.0 mi SW 3.5 mph - N/A   Clear
10:18 PM 33.8 °F - 28.4 °F 81% 30.03 in 10.0 mi Calm Calm - N/A   Clear
10:39 PM 32.0 °F 28.7 °F 28.4 °F 87% 30.02 in 10.0 mi SW 3.5 mph - N/A   Clear
10:58 PM 32.0 °F - 28.4 °F 87% 30.01 in 10.0 mi Calm Calm - N/A   Scattered Clouds
11:19 PM 32.0 °F 25.6 °F 28.4 °F 87% 30.00 in 10.0 mi SW 6.9 mph - N/A   Mostly Cloudy
11:38 PM 33.8 °F 29.6 °F 30.2 °F 87% 30.00 in 10.0 mi WSW 4.6 mph - N/A   Overcast
11:58 PM 35.6 °F 30.7 °F 30.2 °F 81% 30.00 in 10.0 mi SW 5.8 mph - N/A   Overcast